Time;durP1;ratioP1;P1;durP2;ratioP2;P2;SDS_P1;SDS_P2;PMS_P1;PMS_P2;Temp;Humidity;BMP_temperature;BMP_pressure;BME280_temperature;BME280_humidity;BME280_pressure;Samples;Min_cycle;Max_cycle;Signal;HPM_P1;HPM_P2
2021/04/13 00:01:11;;;;;;;26.48;9.15;;;10.30;74.60;;;;;;5099457;28;20016;-73
2021/04/13 00:04:18;;;;;;;21.88;8.90;;;10.20;74.80;;;;;;5103439;28;20015;-75
2021/04/13 00:06:49;;;;;;;22.48;8.98;;;10.30;75.10;;;;;;5092288;28;20446;-75
2021/04/13 00:09:29;;;;;;;25.63;10.73;;;10.30;75.30;;;;;;5097145;28;20023;-75
2021/04/13 00:12:14;;;;;;;28.70;9.23;;;10.20;75.80;;;;;;5100773;28;20082;-77
2021/04/13 00:14:47;;;;;;;20.33;8.18;;;10.20;75.80;;;;;;5083129;28;20024;-77
2021/04/13 00:17:17;;;;;;;19.73;9.15;;;10.20;76.10;;;;;;5109092;28;20496;-76
2021/04/13 00:19:46;;;;;;;19.92;8.00;;;10.20;76.20;;;;;;5095193;28;20049;-74
2021/04/13 00:22:12;;;;;;;29.27;8.55;;;10.10;76.50;;;;;;5115331;28;20194;-76
2021/04/13 00:28:03;;;;;;;26.15;8.38;;;10.20;76.80;;;;;;5096225;28;20082;-76
2021/04/13 00:30:51;;;;;;;23.10;9.48;;;10.20;77.00;;;;;;5096003;28;20481;-74
2021/04/13 00:33:22;;;;;;;25.48;8.55;;;10.20;77.20;;;;;;5045877;28;20057;-74
2021/04/13 00:36:12;;;;;;;24.75;9.00;;;10.20;77.50;;;;;;5077733;28;20031;-74
2021/04/13 00:38:56;;;;;;;20.45;8.43;;;10.10;77.70;;;;;;5083241;28;20030;-75
2021/04/13 00:41:26;;;;;;;24.23;9.07;;;10.20;77.70;;;;;;5087102;28;20047;-74
2021/04/13 00:43:59;;;;;;;22.98;9.23;;;10.20;78.10;;;;;;5095682;28;20485;-75
2021/04/13 00:46:34;;;;;;;22.95;10.45;;;10.20;78.40;;;;;;5095521;28;20411;-75
2021/04/13 00:49:01;;;;;;;20.33;9.30;;;10.20;78.60;;;;;;5090613;28;20508;-73
2021/04/13 00:51:42;;;;;;;21.45;10.10;;;10.10;78.60;;;;;;5095438;28;20082;-73
2021/04/13 00:54:45;;;;;;;21.58;9.55;;;10.20;78.90;;;;;;5095605;28;20052;-73
2021/04/13 00:57:20;;;;;;;31.13;11.63;;;10.20;78.90;;;;;;5081256;28;20411;-74
2021/04/13 00:59:48;;;;;;;27.45;9.82;;;10.20;79.20;;;;;;5095414;28;20089;-73
2021/04/13 01:02:23;;;;;;;31.08;10.45;;;10.20;79.30;;;;;;5095391;28;20469;-74
2021/04/13 01:05:09;;;;;;;27.27;10.63;;;10.20;79.50;;;;;;5095809;28;20101;-74
2021/04/13 01:07:42;;;;;;;27.05;11.13;;;10.20;79.50;;;;;;5082062;28;20020;-74
2021/04/13 01:10:29;;;;;;;28.38;10.10;;;10.10;79.70;;;;;;5095264;28;20025;-73
2021/04/13 01:13:13;;;;;;;21.77;10.75;;;10.20;79.90;;;;;;5084208;28;20446;-74
2021/04/13 01:15:43;;;;;;;24.75;10.88;;;10.10;80.00;;;;;;5094786;28;20027;-74
2021/04/13 01:18:12;;;;;;;32.10;11.77;;;10.10;80.20;;;;;;5095294;28;20040;-73
2021/04/13 01:20:55;;;;;;;29.95;10.73;;;10.10;80.50;;;;;;5094641;28;20024;-74
2021/04/13 01:23:30;;;;;;;26.05;12.05;;;10.10;80.70;;;;;;5057050;28;20028;-74
2021/04/13 01:26:00;;;;;;;26.55;12.55;;;10.10;80.70;;;;;;5092582;28;20015;-74
2021/04/13 01:28:32;;;;;;;21.98;11.00;;;10.10;80.90;;;;;;5095004;28;20024;-74
2021/04/13 01:34:19;;;;;;;26.40;11.73;;;10.00;81.40;;;;;;5094941;28;20070;-73
2021/04/13 01:36:59;;;;;;;26.17;12.00;;;10.00;81.50;;;;;;5094606;28;20107;-74
2021/04/13 01:39:26;;;;;;;21.13;11.75;;;10.00;81.60;;;;;;5094569;28;20031;-75
2021/04/13 01:42:00;;;;;;;29.13;12.55;;;10.00;81.80;;;;;;5094609;28;20069;-73
2021/04/13 01:44:47;;;;;;;47.72;13.88;;;10.00;82.00;;;;;;5094458;28;20024;-74
2021/04/13 01:47:17;;;;;;;26.55;12.55;;;10.00;82.00;;;;;;5094564;28;20218;-73
2021/04/13 01:49:57;;;;;;;33.17;13.82;;;10.00;82.30;;;;;;5076225;28;20028;-74
2021/04/13 01:52:26;;;;;;;26.55;12.57;;;10.00;83.20;;;;;;5076085;28;20554;-73
2021/04/13 01:54:53;;;;;;;26.00;11.95;;;10.00;82.60;;;;;;5094199;28;20095;-75
2021/04/13 01:57:42;;;;;;;29.17;13.50;;;9.90;82.80;;;;;;5094492;28;20024;-75
2021/04/13 02:00:16;;;;;;;33.97;14.30;;;9.90;82.90;;;;;;5094068;28;20020;-73
2021/04/13 02:02:49;;;;;;;33.38;13.35;;;9.90;82.90;;;;;;5094315;28;20024;-73
2021/04/13 02:05:18;;;;;;;28.60;13.75;;;9.90;83.00;;;;;;5094011;28;20028;-74
2021/04/13 02:07:59;;;;;;;28.17;13.52;;;9.90;83.00;;;;;;5094053;28;20472;-74
2021/04/13 02:10:32;;;;;;;32.03;12.98;;;9.90;83.30;;;;;;5093808;28;20024;-74
2021/04/13 02:13:05;;;;;;;28.30;14.23;;;9.90;83.30;;;;;;5094443;28;20028;-74
2021/04/13 02:15:58;;;;;;;28.52;13.43;;;9.80;83.60;;;;;;5093528;28;20028;-72
2021/04/13 02:18:41;;;;;;;29.88;14.30;;;9.80;83.70;;;;;;5075734;28;20023;-74
2021/04/13 02:21:29;;;;;;;37.08;15.30;;;9.80;83.80;;;;;;5079900;28;20063;-75
2021/04/13 02:24:19;;;;;;;36.67;14.57;;;9.80;83.80;;;;;;5093926;28;20028;-74
2021/04/13 02:27:13;;;;;;;33.03;14.45;;;9.80;83.80;;;;;;5093542;28;20100;-74
2021/04/13 02:29:44;;;;;;;37.08;14.23;;;9.80;83.90;;;;;;5079969;28;20024;-74
2021/04/13 02:32:23;;;;;;;34.10;13.73;;;9.70;84.20;;;;;;5093017;28;20035;-74
2021/04/13 02:35:04;;;;;;;40.17;15.93;;;9.80;84.60;;;;;;5086036;28;20012;-74
2021/04/13 02:37:39;;;;;;;30.20;14.10;;;9.70;84.50;;;;;;5093486;28;20020;-74
2021/04/13 02:40:13;;;;;;;24.25;14.77;;;9.80;84.60;;;;;;5093403;28;20024;-73
2021/04/13 02:42:52;;;;;;;27.92;14.52;;;9.80;84.80;;;;;;5093334;28;20027;-74
2021/04/13 02:45:36;;;;;;;30.55;13.63;;;9.80;84.80;;;;;;5093320;28;20077;-73
2021/04/13 02:48:12;;;;;;;34.20;14.88;;;9.80;84.70;;;;;;5093278;28;20354;-74
2021/04/13 02:50:42;;;;;;;30.00;15.15;;;9.80;84.80;;;;;;5091506;28;20016;-75
2021/04/13 02:53:09;;;;;;;25.15;13.70;;;9.80;84.70;;;;;;5093323;28;20020;-75
2021/04/13 02:55:40;;;;;;;26.85;14.25;;;9.80;84.80;;;;;;5093238;28;20350;-76
2021/04/13 02:58:11;;;;;;;40.47;14.57;;;9.80;84.90;;;;;;5074817;28;20511;-74
2021/04/13 03:00:43;;;;;;;25.88;11.82;;;9.80;85.00;;;;;;5093038;28;20020;-73
2021/04/13 03:03:40;;;;;;;27.10;13.35;;;9.80;84.90;;;;;;5093194;28;20032;-75
2021/04/13 03:06:12;;;;;;;31.13;14.52;;;9.90;84.80;;;;;;5085430;28;20453;-75
2021/04/13 03:08:41;;;;;;;31.83;13.23;;;9.90;84.90;;;;;;5093044;28;20039;-74
2021/04/13 03:11:21;;;;;;;35.75;13.60;;;9.90;85.00;;;;;;5092876;28;20062;-74
2021/04/13 03:13:48;;;;;;;34.83;12.70;;;9.90;85.00;;;;;;5092531;28;20091;-75
2021/04/13 03:16:18;;;;;;;42.80;13.57;;;9.90;85.00;;;;;;5092734;28;20047;-73
2021/04/13 03:18:52;;;;;;;32.85;12.95;;;10.00;84.90;;;;;;5092681;28;20023;-73
2021/04/13 03:21:24;;;;;;;33.13;11.65;;;10.00;84.80;;;;;;5093284;28;20415;-74
2021/04/13 03:23:55;;;;;;;32.67;12.98;;;10.00;84.70;;;;;;5073979;28;20023;-75
2021/04/13 03:26:32;;;;;;;38.65;13.65;;;10.00;84.60;;;;;;5092775;28;20070;-74
2021/04/13 03:29:02;;;;;;;40.80;13.20;;;10.10;84.50;;;;;;5092583;28;20016;-75
2021/04/13 03:31:33;;;;;;;25.33;10.70;;;10.10;84.40;;;;;;5092835;28;20477;-74
2021/04/13 03:34:01;;;;;;;26.45;12.15;;;10.10;84.10;;;;;;5092134;28;20029;-74
2021/04/13 03:36:28;;;;;;;27.85;11.77;;;10.20;83.90;;;;;;5092619;28;20020;-76
2021/04/13 03:39:08;;;;;;;28.77;11.30;;;10.30;83.70;;;;;;5092649;28;20020;-74
2021/04/13 03:41:40;;;;;;;35.60;12.25;;;10.30;83.40;;;;;;5078958;28;20123;-75
2021/04/13 03:44:06;;;;;;;44.67;12.35;;;10.40;83.20;;;;;;5092569;28;20016;-76
2021/04/13 03:46:35;;;;;;;24.17;11.90;;;10.50;82.90;;;;;;5092816;28;20063;-75
2021/04/13 03:49:04;;;;;;;28.33;11.93;;;10.60;82.50;;;;;;5092373;28;20265;-74
2021/04/13 03:51:33;;;;;;;30.75;12.70;;;10.70;82.00;;;;;;5092422;28;20054;-75
2021/04/13 03:53:59;;;;;;;26.65;12.73;;;10.80;81.50;;;;;;5092759;28;20078;-74
2021/04/13 03:56:26;;;;;;;30.38;11.55;;;10.90;81.10;;;;;;5092173;28;20031;-74
2021/04/13 03:58:58;;;;;;;40.58;11.70;;;11.10;80.60;;;;;;5092485;28;20016;-75
2021/04/13 04:01:31;;;;;;;34.97;11.98;;;11.20;80.20;;;;;;5075530;28;20058;-74
2021/04/13 04:03:58;;;;;;;32.92;12.25;;;11.20;79.70;;;;;;5096438;28;20091;-75
2021/04/13 04:06:37;;;;;;;31.30;11.75;;;11.40;79.50;;;;;;5092550;28;20020;-75
2021/04/13 04:09:38;;;;;;;34.80;12.35;;;11.50;78.80;;;;;;5092363;28;20073;-74
2021/04/13 04:12:15;;;;;;;30.45;11.13;;;11.60;78.30;;;;;;5010027;28;20029;-74
2021/04/13 04:14:40;;;;;;;53.17;14.13;;;11.70;77.80;;;;;;5009982;28;20087;-74
2021/04/13 04:17:14;;;;;;;28.67;11.27;;;11.80;77.50;;;;;;5009862;28;20129;-75
2021/04/13 04:19:52;;;;;;;29.48;12.13;;;11.90;77.00;;;;;;5009951;28;20112;-73
2021/04/13 04:22:20;;;;;;;22.33;11.25;;;11.90;76.50;;;;;;5020730;28;20033;-77
2021/04/13 04:24:46;;;;;;;26.50;11.20;;;12.00;76.10;;;;;;5029952;28;20065;-77
2021/04/13 04:27:15;;;;;;;33.40;11.20;;;12.10;76.00;;;;;;5043384;28;20061;-75
2021/04/13 04:29:49;;;;;;;28.88;11.85;;;12.20;75.50;;;;;;5032833;28;20021;-77
2021/04/13 04:32:28;;;;;;;33.13;12.35;;;12.40;74.90;;;;;;5043863;28;21232;-74
2021/04/13 04:34:59;;;;;;;45.92;14.25;;;12.70;74.00;;;;;;5048240;28;20017;-75
2021/04/13 04:37:32;;;;;;;31.17;12.55;;;13.20;72.60;;;;;;5041627;28;20438;-75
2021/04/13 04:40:36;;;;;;;33.10;12.25;;;13.60;70.70;;;;;;5045259;28;20029;-75
2021/04/13 04:43:15;;;;;;;77.70;15.00;;;14.20;69.20;;;;;;5042275;28;20047;-76
2021/04/13 04:45:44;;;;;;;34.55;11.77;;;14.70;67.30;;;;;;5060556;28;20039;-76
2021/04/13 04:48:19;;;;;;;30.90;12.30;;;15.10;65.20;;;;;;5105067;28;20020;-77
2021/04/13 04:50:46;;;;;;;29.20;10.55;;;15.40;63.90;;;;;;5093608;28;20073;-75
2021/04/13 04:53:17;;;;;;;31.50;11.63;;;15.80;63.00;;;;;;5104233;28;20016;-75
2021/04/13 04:55:42;;;;;;;28.10;11.40;;;16.20;61.40;;;;;;5086076;28;20032;-74
2021/04/13 04:58:08;;;;;;;33.97;10.88;;;16.60;59.70;;;;;;5098228;28;20030;-74
2021/04/13 05:00:34;;;;;;;37.03;12.20;;;16.90;58.60;;;;;;5096347;28;20095;-75
2021/04/13 05:03:00;;;;;;;33.38;12.95;;;17.20;57.50;;;;;;5095414;28;20024;-75
2021/04/13 05:05:26;;;;;;;32.33;13.05;;;17.50;56.30;;;;;;5077004;28;20095;-75
2021/04/13 05:07:52;;;;;;;26.20;10.75;;;17.50;55.80;;;;;;5077000;28;20122;-76
2021/04/13 05:10:18;;;;;;;32.97;11.88;;;17.90;55.30;;;;;;5094870;28;20017;-75
2021/04/13 05:12:44;;;;;;;36.22;11.45;;;18.20;54.50;;;;;;5094820;28;20036;-75
2021/04/13 05:15:11;;;;;;;32.15;12.52;;;18.40;53.30;;;;;;5095117;28;20481;-76
2021/04/13 05:17:38;;;;;;;32.45;11.23;;;18.40;52.70;;;;;;5094568;28;20130;-76
2021/04/13 05:20:05;;;;;;;26.70;10.85;;;18.50;52.80;;;;;;5077093;28;20165;-75
2021/04/13 05:22:31;;;;;;;;;;;19.00;52.80;;;;;;5095136;28;20508;-75
2021/04/13 05:24:56;;;;;;;31.55;10.95;;;19.30;53.30;;;;;;5076642;28;19950;-75
2021/04/13 05:27:22;;;;;;;39.25;11.90;;;19.60;50.30;;;;;;5076803;28;20024;-75
2021/04/13 05:29:48;;;;;;;39.20;11.82;;;20.10;48.80;;;;;;5094838;28;20092;-75
2021/04/13 05:32:14;;;;;;;28.90;10.75;;;20.50;47.80;;;;;;5094506;28;20031;-75
2021/04/13 05:34:40;;;;;;;45.42;11.77;;;21.10;46.40;;;;;;5112736;28;20043;-80
2021/04/13 05:37:06;;;;;;;26.98;10.50;;;21.50;45.00;;;;;;5113444;28;20379;-79
2021/04/13 05:39:31;;;;;;;30.70;12.38;;;21.90;44.20;;;;;;5110217;28;20096;-77
2021/04/13 05:41:59;;;;;;;37.45;11.07;;;22.10;43.60;;;;;;5100769;28;20063;-75
2021/04/13 05:44:25;;;;;;;31.90;10.85;;;22.30;43.10;;;;;;5108545;28;20016;-75
2021/04/13 05:46:52;;;;;;;37.38;12.70;;;22.80;42.40;;;;;;5113229;28;20051;-74
2021/04/13 05:49:20;;;;;;;32.33;11.05;;;23.30;41.10;;;;;;5041352;28;20440;-74
2021/04/13 05:51:46;;;;;;;34.40;12.73;;;23.80;40.20;;;;;;5112702;28;20031;-75
2021/04/13 05:54:12;;;;;;;32.20;10.85;;;24.30;39.40;;;;;;5112670;28;20011;-75
2021/04/13 05:56:41;;;;;;;39.47;11.25;;;24.60;38.20;;;;;;5111170;28;20099;-76
2021/04/13 05:59:09;;;;;;;35.33;11.80;;;25.00;37.50;;;;;;5105216;28;20013;-76
2021/04/13 06:01:36;;;;;;;38.72;12.77;;;25.40;37.40;;;;;;5093866;28;20020;-76
2021/04/13 06:04:03;;;;;;;37.25;11.65;;;25.50;36.20;;;;;;5093915;28;20028;-75
2021/04/13 06:06:31;;;;;;;43.38;12.25;;;25.80;36.00;;;;;;5093678;28;20040;-74
2021/04/13 06:08:58;;;;;;;35.88;10.63;;;26.20;35.30;;;;;;5093891;28;20020;-74
2021/04/13 06:11:30;;;;;;;36.03;11.10;;;26.50;34.80;;;;;;5094224;28;20036;-76
2021/04/13 06:14:00;;;;;;;27.13;11.27;;;26.30;34.20;;;;;;5093474;28;20100;-75
2021/04/13 06:16:33;;;;;;;37.20;11.65;;;26.40;34.50;;;;;;5084846;28;20063;-74
2021/04/13 06:18:59;;;;;;;48.17;14.15;;;26.80;34.50;;;;;;5096774;28;20024;-78
2021/04/13 06:21:25;;;;;;;36.20;10.57;;;27.20;33.40;;;;;;5108494;28;20502;-84
2021/04/13 06:23:50;;;;;;;33.78;11.07;;;27.70;32.90;;;;;;5094218;28;20107;-80
2021/04/13 06:26:16;;;;;;;30.65;11.20;;;28.10;32.10;;;;;;5097492;28;20054;-79
2021/04/13 06:28:42;;;;;;;31.70;9.82;;;28.50;31.40;;;;;;5094592;28;20479;-78
2021/04/13 06:31:08;;;;;;;31.55;11.32;;;28.50;30.80;;;;;;5096139;28;20028;-78
2021/04/13 06:33:34;;;;;;;38.15;10.65;;;28.60;30.30;;;;;;5095021;28;20396;-76
2021/04/13 06:36:01;;;;;;;35.20;10.90;;;28.80;30.30;;;;;;5092389;28;20032;-83
2021/04/13 06:38:28;;;;;;;39.35;10.73;;;28.40;30.00;;;;;;5068249;28;20020;-75
2021/04/13 06:41:01;;;;;;;40.75;11.30;;;28.20;30.30;;;;;;5096434;28;20020;-76
2021/04/13 06:43:48;;;;;;;24.83;9.20;;;28.60;30.30;;;;;;5095120;28;20471;-76
2021/04/13 06:47:07;;;;;;;41.15;11.68;;;28.80;30.10;;;;;;5096022;28;20043;-78
2021/04/13 06:49:51;;;;;;;42.08;10.38;;;28.60;30.70;;;;;;5015174;28;20399;-79
2021/04/13 06:52:36;;;;;;;33.70;10.30;;;27.40;30.70;;;;;;5091879;28;20039;-79
2021/04/13 06:55:05;;;;;;;50.47;12.80;;;26.50;31.60;;;;;;5101113;28;20085;-81
2021/04/13 06:57:43;;;;;;;36.97;9.95;;;26.90;31.70;;;;;;5110263;28;20392;-79
2021/04/13 07:00:12;;;;;;;39.95;10.75;;;26.90;31.00;;;;;;5097382;28;20070;-79
2021/04/13 07:02:53;;;;;;;29.70;10.32;;;26.70;31.60;;;;;;5076366;28;20077;-80
2021/04/13 07:05:26;;;;;;;24.88;9.60;;;27.10;31.10;;;;;;5093363;28;20020;-80
2021/04/13 07:07:56;;;;;;;26.70;9.18;;;27.50;30.40;;;;;;5095444;28;20030;-78
2021/04/13 07:10:28;;;;;;;32.72;9.80;;;27.20;30.40;;;;;;5078243;28;20066;-78
2021/04/13 07:13:18;;;;;;;32.60;9.40;;;27.60;30.50;;;;;;5092198;28;20048;-78
2021/04/13 07:16:10;;;;;;;30.75;9.77;;;27.70;30.00;;;;;;5075826;28;20129;-78
2021/04/13 07:18:41;;;;;;;31.77;9.73;;;26.10;30.90;;;;;;5093896;28;20016;-79
2021/04/13 07:21:15;;;;;;;23.77;9.52;;;25.00;32.50;;;;;;5077714;28;20020;-81
2021/04/13 07:23:45;;;;;;;37.95;10.38;;;24.80;33.00;;;;;;5096367;28;20046;-79
2021/04/13 07:26:35;;;;;;;45.47;13.77;;;25.70;32.70;;;;;;5101147;28;20030;-80
2021/04/13 07:29:42;;;;;;;30.67;10.57;;;27.40;31.50;;;;;;5078496;28;20521;-80
2021/04/13 07:32:19;;;;;;;17.85;7.82;;;29.10;30.00;;;;;;5074452;28;20048;-80
2021/04/13 07:34:45;;;;;;;;;;;30.20;28.50;;;;;;5092264;28;20505;-79
2021/04/13 07:37:30;;;;;;;35.03;9.93;;;29.70;29.60;;;;;;5074833;28;20339;-79
2021/04/13 07:39:58;;;;;;;47.33;11.77;;;30.40;28.60;;;;;;5087376;28;20024;-80
2021/04/13 07:42:34;;;;;;;39.33;11.25;;;31.50;28.00;;;;;;5092248;28;20554;-79
2021/04/13 07:45:00;;;;;;;33.15;10.43;;;31.80;27.60;;;;;;5094611;28;20073;-79
2021/04/13 07:47:51;;;;;;;39.00;11.10;;;32.50;27.10;;;;;;5094095;28;20024;-80
2021/04/13 07:50:34;;;;;;;39.03;12.15;;;33.30;27.20;;;;;;5081546;28;20036;-78
2021/04/13 07:53:04;;;;;;;28.60;10.20;;;33.70;27.00;;;;;;5076366;28;20511;-79
2021/04/13 07:55:41;;;;;;;29.42;10.05;;;34.20;25.90;;;;;;5093475;28;20070;-82
2021/04/13 07:58:15;;;;;;;41.40;11.27;;;33.90;25.50;;;;;;5092365;28;20039;-81
2021/04/13 08:00:46;;;;;;;35.13;9.85;;;32.70;26.20;;;;;;5074821;28;20224;-78
2021/04/13 08:03:21;;;;;;;31.73;10.27;;;32.90;26.30;;;;;;5092666;28;20020;-81
2021/04/13 08:05:50;;;;;;;45.65;10.75;;;33.60;26.20;;;;;;5092904;28;20024;-80
2021/04/13 08:08:26;;;;;;;32.17;10.45;;;34.00;25.80;;;;;;5091853;28;20016;-80
2021/04/13 08:11:09;;;;;;;32.42;10.93;;;34.20;25.50;;;;;;5094643;28;20024;-80
2021/04/13 08:13:35;;;;;;;29.33;10.05;;;34.10;25.50;;;;;;5094713;28;20016;-81
2021/04/13 08:16:01;;;;;;;27.02;8.60;;;34.30;25.30;;;;;;5094180;28;20059;-78
2021/04/13 08:18:36;;;;;;;30.30;10.87;;;33.50;25.20;;;;;;5091974;28;20481;-79
2021/04/13 08:21:40;;;;;;;25.70;10.20;;;33.50;25.70;;;;;;5075641;28;20085;-79
2021/04/13 08:24:45;;;;;;;27.38;10.05;;;34.10;25.90;;;;;;5009537;28;20022;-79
2021/04/13 08:27:17;;;;;;;;;;;34.50;25.40;;;;;;5029562;28;20064;-79
2021/04/13 08:30:04;;;;;;;33.05;9.13;;;34.10;26.00;;;;;;5033555;28;19944;-78
2021/04/13 08:33:01;;;;;;;27.02;9.40;;;34.20;25.40;;;;;;5018846;28;20149;-81
2021/04/13 08:35:37;;;;;;;36.38;9.48;;;34.40;25.10;;;;;;5033151;28;20045;-79
2021/04/13 08:38:04;;;;;;;;;;;34.40;25.40;;;;;;5035791;28;20041;-81
2021/04/13 08:40:35;;;;;;;35.55;9.73;;;34.80;25.60;;;;;;5035310;28;19940;-81
2021/04/13 08:43:08;;;;;;;36.30;10.57;;;35.20;24.60;;;;;;5036417;28;20547;-79
2021/04/13 08:45:46;;;;;;;35.78;9.48;;;35.30;24.60;;;;;;5037967;28;20021;-80
2021/04/13 08:49:04;;;;;;;32.50;8.85;;;35.90;24.60;;;;;;5036034;28;20037;-83
2021/04/13 08:51:35;;;;;;;27.15;8.10;;;36.50;24.50;;;;;;5028676;28;20052;-80
2021/04/13 08:54:33;;;;;;;43.00;9.70;;;36.80;23.80;;;;;;5039760;28;20063;-80
2021/04/13 08:57:26;;;;;;;31.05;9.18;;;36.50;23.80;;;;;;5097574;28;20057;-80
2021/04/13 08:59:58;;;;;;;33.58;9.77;;;36.90;24.00;;;;;;5077869;28;20020;-81
2021/04/13 09:02:34;;;;;;;36.17;9.32;;;36.60;23.60;;;;;;5095192;28;20062;-80
2021/04/13 09:05:14;;;;;;;27.55;9.68;;;36.40;23.80;;;;;;5089939;28;20099;-82
2021/04/13 09:07:55;;;;;;;33.55;9.93;;;35.40;24.00;;;;;;5096640;28;20028;-81
2021/04/13 09:10:26;;;;;;;32.60;10.15;;;35.10;24.40;;;;;;5090474;28;20024;-80
2021/04/13 09:13:26;;;;;;;34.67;10.02;;;34.40;24.90;;;;;;5104140;28;20035;-81
2021/04/13 09:16:07;;;;;;;25.42;8.93;;;34.80;24.90;;;;;;5106079;28;20551;-82
2021/04/13 09:18:45;;;;;;;29.20;8.75;;;34.90;24.60;;;;;;5094116;28;20103;-82
2021/04/13 09:21:32;;;;;;;30.35;10.55;;;34.10;24.40;;;;;;5095812;28;20100;-81
2021/04/13 09:24:19;;;;;;;23.52;8.00;;;34.50;24.50;;;;;;5102047;28;20424;-81
2021/04/13 09:26:56;;;;;;;38.92;11.43;;;35.10;24.20;;;;;;5101366;28;20023;-81
2021/04/13 09:29:44;;;;;;;35.05;10.73;;;35.00;23.80;;;;;;5104458;28;20023;-79
2021/04/13 09:32:32;;;;;;;33.17;9.02;;;34.20;24.40;;;;;;5093359;28;20062;-81
2021/04/13 09:35:30;;;;;;;24.15;8.07;;;35.00;24.60;;;;;;5096957;28;20019;-80
2021/04/13 09:37:59;;;;;;;24.67;9.35;;;35.30;23.50;;;;;;5104787;28;20020;-82
2021/04/13 09:40:44;;;;;;;34.45;9.18;;;33.90;23.70;;;;;;5082639;28;20028;-78
2021/04/13 09:43:16;;;;;;;23.63;8.80;;;32.60;24.10;;;;;;5087019;28;20035;-80
2021/04/13 09:45:50;;;;;;;27.80;9.02;;;31.60;24.70;;;;;;5094629;28;20457;-82
2021/04/13 09:48:51;;;;;;;33.08;8.48;;;31.60;25.20;;;;;;5105278;28;20024;-79
2021/04/13 09:51:39;;;;;;;29.70;9.20;;;32.60;24.50;;;;;;5102348;28;20106;-80
2021/04/13 09:54:28;;;;;;;39.50;10.18;;;32.90;24.30;;;;;;5100453;28;20053;-82
2021/04/13 09:57:19;;;;;;;23.85;7.50;;;33.90;24.00;;;;;;5105767;28;20019;-80
2021/04/13 10:00:05;;;;;;;34.97;8.85;;;33.50;23.40;;;;;;5098657;28;20024;-78
2021/04/13 10:02:49;;;;;;;27.08;8.60;;;32.70;23.90;;;;;;5081456;28;20074;-81
2021/04/13 10:05:17;;;;;;;25.40;8.48;;;32.00;24.00;;;;;;5076894;28;20504;-79
2021/04/13 10:08:11;;;;;;;34.58;10.45;;;31.10;24.10;;;;;;5094175;28;20150;-81
2021/04/13 10:10:39;;;;;;;25.73;8.10;;;30.60;24.70;;;;;;5093811;28;20012;-80
2021/04/13 10:13:34;;;;;;;32.55;9.95;;;30.30;24.30;;;;;;5075923;28;20020;-81
2021/04/13 10:16:40;;;;;;;26.52;8.55;;;30.00;25.00;;;;;;5065490;28;20114;-82
2021/04/13 10:19:29;;;;;;;30.05;8.52;;;31.00;24.80;;;;;;5093959;28;20020;-80
2021/04/13 10:22:23;;;;;;;32.08;8.95;;;32.00;24.10;;;;;;5093745;28;20024;-81
2021/04/13 10:25:01;;;;;;;32.63;10.32;;;30.60;24.30;;;;;;5060663;28;20382;-81
2021/04/13 10:27:51;;;;;;;29.05;8.18;;;29.50;25.10;;;;;;5089667;28;20504;-79
2021/04/13 10:30:41;;;;;;;26.02;7.97;;;28.70;25.40;;;;;;5093606;28;20069;-78
2021/04/13 10:33:39;;;;;;;28.98;8.95;;;27.60;26.00;;;;;;5092969;28;20138;-79
2021/04/13 10:36:28;;;;;;;38.78;8.65;;;26.60;26.30;;;;;;5093609;28;20052;-79
2021/04/13 10:39:15;;;;;;;37.25;8.82;;;25.60;26.90;;;;;;5093181;28;20077;-79
2021/04/13 10:41:58;;;;;;;29.33;8.13;;;25.10;26.60;;;;;;5059239;28;20041;-81
2021/04/13 10:44:41;;;;;;;30.63;8.07;;;24.70;27.30;;;;;;5089310;28;20027;-81
2021/04/13 10:47:35;;;;;;;35.83;9.75;;;24.50;27.50;;;;;;5093488;28;20028;-78
2021/04/13 10:50:09;;;;;;;37.72;10.65;;;24.40;27.70;;;;;;5079408;28;20114;-80
2021/04/13 10:53:16;;;;;;;31.13;10.35;;;24.50;27.80;;;;;;5093292;28;20020;-79
2021/04/13 10:56:19;;;;;;;25.10;8.98;;;24.60;28.00;;;;;;5083942;28;20095;-80
2021/04/13 10:59:13;;;;;;;22.30;8.52;;;24.20;27.70;;;;;;5080949;28;20209;-82
2021/04/13 11:01:58;;;;;;;24.38;8.85;;;23.90;28.30;;;;;;5093989;28;20032;-79
2021/04/13 11:04:55;;;;;;;24.25;9.18;;;24.00;28.10;;;;;;5081316;28;20016;-79
2021/04/13 11:07:47;;;;;;;25.52;8.00;;;23.90;28.20;;;;;;5074672;28;20477;-79
2021/04/13 11:10:25;;;;;;;24.23;9.10;;;23.80;28.50;;;;;;5092618;28;20070;-80
2021/04/13 11:13:18;;;;;;;34.83;10.35;;;23.80;28.70;;;;;;5092245;28;20032;-80
2021/04/13 11:15:59;;;;;;;30.40;10.70;;;23.90;28.90;;;;;;5074356;28;20385;-80
2021/04/13 11:18:51;;;;;;;25.33;9.13;;;24.00;28.60;;;;;;5093857;28;20032;-79
2021/04/13 11:21:57;;;;;;;27.15;9.10;;;24.00;28.20;;;;;;5062448;28;20118;-81
2021/04/13 11:24:47;;;;;;;36.67;9.23;;;24.00;28.40;;;;;;5092791;28;20020;-81
2021/04/13 11:27:31;;;;;;;27.98;9.48;;;23.80;28.40;;;;;;5092606;28;20105;-80
2021/04/13 11:30:21;;;;;;;34.95;9.18;;;23.60;28.50;;;;;;5092711;28;20081;-81
2021/04/13 11:33:24;;;;;;;29.17;8.77;;;23.50;28.80;;;;;;5089315;28;20169;-80
2021/04/13 11:36:06;;;;;;;22.75;8.80;;;23.60;28.90;;;;;;5092917;28;20019;-82
2021/04/13 11:38:44;;;;;;;35.83;9.55;;;23.40;28.20;;;;;;5092654;28;20024;-79
2021/04/13 11:41:37;;;;;;;24.85;9.07;;;23.40;28.30;;;;;;5092229;28;20028;-78
2021/04/13 11:44:22;;;;;;;21.65;8.48;;;23.50;28.60;;;;;;5092268;28;20081;-77
2021/04/13 11:47:19;;;;;;;19.42;8.38;;;23.60;28.60;;;;;;5080038;28;20073;-79
2021/04/13 11:49:50;;;;;;;27.73;9.88;;;23.60;28.60;;;;;;5092274;28;20020;-81
2021/04/13 11:52:27;;;;;;;25.67;9.13;;;23.40;28.80;;;;;;5092704;28;20099;-81
2021/04/13 11:54:58;;;;;;;22.10;8.70;;;23.40;28.90;;;;;;5108064;28;20031;-81
2021/04/13 11:57:52;;;;;;;22.17;9.25;;;23.30;29.00;;;;;;5099611;28;20373;-78
2021/04/13 12:00:21;;;;;;;35.13;10.02;;;23.30;28.90;;;;;;5079433;28;20024;-79
2021/04/13 12:03:11;;;;;;;19.80;8.90;;;23.20;29.30;;;;;;5093133;28;20037;-80
2021/04/13 12:05:40;;;;;;;30.35;8.93;;;23.20;29.50;;;;;;5066388;28;20024;-81
2021/04/13 12:08:07;;;;;;;27.75;9.63;;;23.30;29.50;;;;;;5097317;28;20020;-80
2021/04/13 12:10:33;;;;;;;30.05;10.95;;;23.30;29.60;;;;;;5096639;28;20419;-82
2021/04/13 12:13:28;;;;;;;30.58;10.88;;;23.40;29.50;;;;;;5097279;28;20012;-82
2021/04/13 12:16:20;;;;;;;19.30;8.35;;;23.30;29.50;;;;;;5095819;28;20120;-81
2021/04/13 12:19:05;;;;;;;31.95;9.85;;;23.40;29.40;;;;;;5078165;28;20440;-84
2021/04/13 12:21:30;;;;;;;21.17;10.05;;;23.20;29.60;;;;;;5096465;28;20480;-82
2021/04/13 12:23:57;;;;;;;25.13;11.23;;;23.30;29.80;;;;;;5096695;28;20115;-81
2021/04/13 12:26:32;;;;;;;23.67;10.18;;;23.50;29.40;;;;;;5096287;28;20103;-82
2021/04/13 12:29:27;;;;;;;22.48;11.10;;;23.50;29.10;;;;;;5096144;28;20048;-83
2021/04/13 12:32:11;;;;;;;29.63;10.63;;;23.50;29.40;;;;;;5096059;28;20020;-81
2021/04/13 12:34:57;;;;;;;20.35;10.40;;;23.30;29.30;;;;;;5109355;28;20808;-80
2021/04/13 12:37:37;;;;;;;23.00;11.63;;;23.20;29.70;;;;;;5096321;28;20024;-83
2021/04/13 12:43:43;;;;;;;24.40;10.85;;;23.10;29.50;;;;;;5096533;28;20047;-83
2021/04/13 12:46:31;;;;;;;23.70;10.77;;;23.10;29.20;;;;;;5094642;28;20104;-82
2021/04/13 12:49:02;;;;;;;33.35;10.80;;;23.10;29.00;;;;;;5097457;28;20071;-81
2021/04/13 12:51:51;;;;;;;22.40;11.07;;;23.20;28.70;;;;;;5099575;28;20023;-82
2021/04/13 12:54:52;;;;;;;26.60;11.30;;;23.30;28.70;;;;;;5105691;28;20031;-79
2021/04/13 12:57:23;;;;;;;22.23;10.43;;;23.20;28.60;;;;;;5025378;28;20025;-82
2021/04/13 12:59:51;;;;;;;28.73;11.63;;;23.20;28.60;;;;;;5034108;28;20466;-81
2021/04/13 13:02:31;;;;;;;31.58;12.43;;;23.10;28.60;;;;;;5033982;28;20136;-85
2021/04/13 13:04:57;;;;;;;30.60;11.50;;;23.20;29.00;;;;;;5033319;28;20037;-78
2021/04/13 13:07:26;;;;;;;25.38;9.40;;;23.20;28.70;;;;;;5032972;28;20407;-78
2021/04/13 13:09:52;;;;;;;22.27;10.75;;;23.10;28.20;;;;;;5016590;28;20029;-82
2021/04/13 13:12:20;;;;;;;23.88;10.05;;;23.00;28.10;;;;;;5032993;28;20510;-80
2021/04/13 13:15:01;;;;;;;21.60;10.40;;;22.90;28.30;;;;;;5053156;28;20031;-81
2021/04/13 13:17:57;;;;;;;29.05;9.80;;;22.90;28.50;;;;;;5051522;28;20052;-80
2021/04/13 13:20:32;;;;;;;21.43;9.70;;;22.90;28.10;;;;;;5043056;28;20120;-80
2021/04/13 13:22:59;;;;;;;21.05;8.85;;;22.90;27.90;;;;;;5039990;28;20047;-78
2021/04/13 13:25:34;;;;;;;25.48;9.35;;;22.80;27.40;;;;;;5052878;28;20110;-78
2021/04/13 13:28:24;;;;;;;30.67;9.40;;;22.80;27.30;;;;;;5019544;28;20076;-76
2021/04/13 13:30:55;;;;;;;38.60;10.20;;;22.80;27.30;;;;;;5057504;28;20040;-79
2021/04/13 13:33:21;;;;;;;21.20;9.55;;;22.80;27.30;;;;;;5094891;28;20024;-77
2021/04/13 13:35:48;;;;;;;22.58;7.88;;;22.80;27.20;;;;;;5094638;28;20020;-77